Flight Track Log - Related Links

Times and Time Zones

All times are in EDT time to prevent confusion due to time zone crossing. See the N75147 flight status page for this flight to view local times or setup timezone preferences in your user account.

Time Position Orientation Groundspeed Altitude Reporting Facility
EDT Latitude Longitude Course Direction KTS MPH feet Rate Location/Type
Thu 01:06:15 PM 30.3828 -86.4036 102° East  Level FlightAware Approximate
Thu 01:07:15 PM 30.3760 -86.3730 102° East  Level FlightAware Approximate
Thu 01:08:15 PM 30.3692 -86.3425 102° East  Level FlightAware Approximate
Thu 01:09:15 PM 30.3624 -86.3120 102° East  Level FlightAware Approximate
Thu 01:10:15 PM 30.3556 -86.2814 102° East  Level FlightAware Approximate
Thu 01:11:15 PM 30.3485 -86.2510 102° East  Level FlightAware Approximate
Thu 01:12:15 PM 30.3406 -86.2208 102° East  Level FlightAware Approximate
Thu 01:13:15 PM 30.3328 -86.1906 102° East  Level FlightAware Approximate
Thu 01:14:15 PM 30.3249 -86.1605 102° East  Level FlightAware Approximate
Thu 01:15:15 PM 30.3170 -86.1303 102° East  Level FlightAware Approximate
Thu 01:16:15 PM 30.3092 -86.1001 102° East  Level FlightAware Approximate
Thu 01:17:15 PM 30.3013 -86.0700 102° East  Level FlightAware Approximate
Thu 01:18:15 PM 30.2934 -86.0398 102° East  Level FlightAware Approximate
Thu 01:19:15 PM 30.2855 -86.0097 102° East  Level FlightAware Approximate
Thu 01:20:15 PM 30.2776 -85.9795 102° East  Level FlightAware Approximate
Thu 01:21:15 PM 30.2697 -85.9494 102° East  Level FlightAware Approximate
Thu 01:22:15 PM 30.2617 -85.9192 102° East  Level FlightAware Approximate
Thu 01:23:15 PM 30.2537 -85.8887 102° East  Level FlightAware Approximate
Thu 01:24:15 PM 30.2457 -85.8582 102° East  Level FlightAware Approximate
Thu 01:25:15 PM 30.2376 -85.8277 101° East  Level FlightAware Approximate
Thu 01:26:15 PM 30.2296 -85.7972 101° East  Level FlightAware Approximate
Thu 01:27:15 PM 30.2215 -85.7668 101° East  Level FlightAware Approximate
Thu 01:28:15 PM 30.2135 -85.7363 101° East  Level FlightAware Approximate
Thu 01:29:15 PM 30.2054 -85.7058 101° East  Level FlightAware Approximate
Thu 01:30:15 PM 30.1973 -85.6753 101° East  Level FlightAware Approximate
Thu 01:31:15 PM 30.2035 -85.6444 102° East  Level FlightAware Approximate
Thu 01:32:15 PM 30.1949 -85.6141 101° East  Level FlightAware Approximate
Thu 01:33:15 PM 30.1863 -85.5838 101° East  Level FlightAware Approximate
Thu 01:34:15 PM 30.1776 -85.5536 101° East  Level FlightAware Approximate
Thu 01:35:15 PM 30.1690 -85.5233 101° East  Level FlightAware Approximate
Thu 01:36:15 PM 30.1604 -85.4931 101° East  Level FlightAware Approximate
Thu 01:37:15 PM 30.1517 -85.4628 101° East  Level FlightAware Approximate
Thu 01:38:15 PM 30.1430 -85.4326 101° East  Level FlightAware Approximate
Thu 01:39:15 PM 30.1344 -85.4024 101° East  Level FlightAware Approximate
Thu 01:40:15 PM 30.1257 -85.3721 101° East  Level FlightAware Approximate
Thu 01:41:15 PM 30.1170 -85.3419 101° East  Level FlightAware Approximate
Thu 01:42:15 PM 30.1083 -85.3117 101° East  Level FlightAware Approximate
Thu 01:43:15 PM 30.0996 -85.2815 100° East  Level FlightAware Approximate
Thu 01:44:15 PM 30.0910 -85.2513 100° East  Level FlightAware Approximate
Thu 01:45:15 PM 30.0822 -85.2211 100° East  Level FlightAware Approximate
Thu 01:46:15 PM 30.0735 -85.1909 100° East  Level FlightAware Approximate
Thu 01:47:15 PM 30.0648 -85.1607 100° East  Level FlightAware Approximate
Thu 01:48:15 PM 30.0561 -85.1305 100° East  Level FlightAware Approximate
Thu 01:49:15 PM 30.0473 -85.1003 100° East  Level FlightAware Approximate
Thu 01:50:15 PM 30.0386 -85.0702 100° East  Level FlightAware Approximate
Thu 01:51:15 PM 30.0299 -85.0400 99° East  Level FlightAware Approximate
Thu 01:52:15 PM 30.0211 -85.0098 99° East  Level FlightAware Approximate
Thu 01:53:15 PM 30.0123 -84.9797 99° East  Level FlightAware Approximate
Thu 01:54:15 PM 30.0036 -84.9495 99° East  Level FlightAware Approximate
Thu 01:55:15 PM 29.9948 -84.9194 99° East  Level FlightAware Approximate
Thu 01:56:15 PM 29.9860 -84.8892 99° East  Level FlightAware Approximate
Thu 01:57:15 PM 29.9772 -84.8591 98° East  Level FlightAware Approximate
Thu 01:58:15 PM 29.9684 -84.8290 98° East  Level FlightAware Approximate
Thu 01:59:15 PM 29.9596 -84.7988 98° East  Level FlightAware Approximate
Thu 02:00:15 PM 29.9508 -84.7687 98° East  Level FlightAware Approximate
Thu 02:01:15 PM 29.9420 -84.7386 98° East  Level FlightAware Approximate
Thu 02:02:15 PM 29.9332 -84.7085 97° East  Level FlightAware Approximate
Thu 02:03:15 PM 29.9243 -84.6784 97° East  Level FlightAware Approximate
Thu 02:04:15 PM 29.9155 -84.6483 97° East  Level FlightAware Approximate
Thu 02:05:15 PM 29.9067 -84.6182 97° East  Level FlightAware Approximate
Thu 02:06:15 PM 29.8978 -84.5881 96° East  Level FlightAware Approximate
Thu 02:07:15 PM 29.8890 -84.5580 96° East  Level FlightAware Approximate
Thu 02:08:15 PM 29.8801 -84.5279 96° East  Level FlightAware Approximate
Thu 02:09:15 PM 29.8712 -84.4979 95° East  Level FlightAware Approximate
Thu 02:10:15 PM 29.8623 -84.4678 95° East  Level FlightAware Approximate
Thu 02:11:15 PM 29.8535 -84.4377 95° East  Level FlightAware Approximate
Thu 02:12:15 PM 29.8446 -84.4077 94° East  Level FlightAware Approximate
Thu 02:13:15 PM 29.8358 -84.3779 94° East  Level FlightAware Approximate
Thu 02:14:15 PM 29.8269 -84.3482 94° East  Level FlightAware Approximate
Thu 02:15:15 PM 29.8181 -84.3184 93° East  Level FlightAware Approximate
Thu 02:16:15 PM 29.8093 -84.2887 93° East  Level FlightAware Approximate
Thu 02:17:15 PM 29.8004 -84.2589 92° East  Level FlightAware Approximate
Thu 02:18:15 PM 29.7916 -84.2292 92° East  Level FlightAware Approximate
Thu 02:19:15 PM 29.7827 -84.1994 91° East  Level FlightAware Approximate
Thu 02:20:15 PM 29.7739 -84.1697 90° East  Level FlightAware Approximate
Thu 02:21:15 PM 29.7650 -84.1400 90° East  Level FlightAware Approximate
Thu 02:22:15 PM 29.7561 -84.1103 89° East  Level FlightAware Approximate
Thu 02:23:15 PM 29.7473 -84.0806 88° East  Level FlightAware Approximate
Thu 02:24:15 PM 29.7384 -84.0509 88° East  Level FlightAware Approximate
Thu 02:25:15 PM 29.7295 -84.0212 87° East  Level FlightAware Approximate
Thu 02:26:15 PM 29.7206 -83.9915 86° East  Level FlightAware Approximate
Thu 02:27:15 PM 29.7117 -83.9618 85° East  Level FlightAware Approximate
Thu 02:28:15 PM 29.7028 -83.9321 84° East  Level FlightAware Approximate
Thu 02:29:15 PM 29.6938 -83.9024 82° East  Level FlightAware Approximate
Thu 02:30:15 PM 29.6849 -83.8727 81° East  Level FlightAware Approximate
Thu 02:31:15 PM 29.6760 -83.8431 80° East  Level FlightAware Approximate
Thu 02:32:15 PM 29.6670 -83.8134 78° East  Level FlightAware Approximate
Thu 02:33:15 PM 29.6581 -83.7838 76° East  Level FlightAware Approximate
Thu 02:34:15 PM 29.6491 -83.7541 74° East  Level FlightAware Approximate
Thu 02:35:15 PM 29.6402 -83.7244 72° East  Level FlightAware Approximate
Thu 02:36:15 PM 29.6312 -83.6948 69° East  Level FlightAware Approximate
Thu 02:59:34 PM 29.7647 -83.2825 130° Southeast 110 127 5,000  Level Jacksonville Center
Thu 03:00:34 PM 29.7442 -83.2539 121° Southeast 110 127 5,000 50 Level Jacksonville Center
Thu 03:01:34 PM 29.7317 -83.2297 135° Southeast 97 112 5,100 50 Climbing Jacksonville Center
Thu 03:02:34 PM 29.7150 -83.2106 130° Southeast 97 112 5,100  Level Jacksonville Center
Thu 03:03:34 PM 29.6942 -83.1819 132° Southeast 97 112 5,100  Level Jacksonville Center
Thu 03:04:32 PM 29.6775 -83.1603 129° Southeast 100 115 5,100  Level Jacksonville Center
Thu 03:05:33 PM 29.6586 -83.1339 129° Southeast 101 116 5,100 -49 Level Jacksonville Center
Thu 03:06:34 PM 29.6400 -83.1075 124° Southeast 102 117 5,000 -50 Descending Jacksonville Center
Thu 03:07:34 PM 29.6275 -83.0861 132° Southeast 102 117 5,000  Level Jacksonville Center
Thu 03:08:34 PM 29.6089 -83.0622 130° Southeast 102 117 5,000  Level Jacksonville Center
Thu 03:09:34 PM 29.5881 -83.0333 122° Southeast 108 124 5,000 47 Level Jacksonville Center
Thu 03:10:43 PM 29.5711 -83.0025 112° Southeast 102 117 5,100  Climbing Jacksonville Center
Thu 03:11:34 PM 29.5608 -82.9736 121° Southeast 103 119 5,000  Descending Jacksonville Center
Thu 03:12:45 PM 29.5419 -82.9381 127° Southeast 107 123 5,100  Climbing Jacksonville Center
Thu 03:13:34 PM 29.5294 -82.9189 123° Southeast 98 113 5,000  Descending Jacksonville Center
Thu 03:14:47 PM 29.5108 -82.8856 121° Southeast 102 117 5,100 45 Climbing Jacksonville Center
Thu 03:15:48 PM 29.4961 -82.8569 123° Southeast 105 121 5,100 -49 Level Jacksonville Center
Thu 03:16:49 PM 29.4814 -82.8306 120° Southeast 99 114 5,000 -148 Descending Jacksonville Center
Thu 03:17:50 PM 29.4647 -82.7972 115° Southeast 103 119 4,800 -422 Descending Jacksonville Center
Thu 03:18:57 PM 29.4522 -82.7661 121° Southeast 105 121 4,100 -393 Descending Jacksonville Center
Thu 03:19:52 PM 29.4375 -82.7375 124° Southeast 108 124 4,000 -362 Descending Jacksonville Center
Thu 03:20:53 PM 29.4208 -82.7089 123° Southeast 106 122 3,400 -492 Descending Jacksonville Center
Thu 03:21:54 PM 29.4061 -82.6828 119° Southeast 105 121 3,000 -155 Descending Jacksonville Center
Thu 03:22:49 PM 29.3936 -82.6567 119° Southeast 96 110 3,100 52 Climbing Jacksonville Center
Thu 03:23:50 PM 29.3811 -82.6306 122° Southeast 95 109 3,100  Level Jacksonville Center
Thu 03:24:51 PM 29.3642 -82.5994 122° Southeast 102 117 3,100  Level Jacksonville Center
Thu 03:25:52 PM 29.3497 -82.5733 119° Southeast 105 121 3,100  Level Jacksonville Center
Thu 03:26:58 PM 29.3350 -82.5425 123° Southeast 104 120 3,100  Level Jacksonville Center
Thu 03:27:59 PM 29.3203 -82.5161 121° Southeast 93 107 3,100  Level Jacksonville Center
Thu 03:29:01 PM 29.3056 -82.4878 121° Southeast 101 116 3,100 -141 Level Jacksonville Center
Thu 03:30:07 PM 29.2867 -82.4519 115° Southeast 113 130 2,800 -446 Descending Jacksonville Center
Thu 03:31:02 PM 29.2739 -82.4211 126° Southeast 111 128 2,200 -466 Descending Jacksonville Center
Thu 03:32:03 PM 29.2592 -82.3975 107° East 102 117 1,900 -98 Descending Jacksonville Center
Thu 03:33:04 PM 29.2508 -82.3667 111° Southeast 98 113 2,000 98 Climbing Jacksonville Center
Thu 03:34:05 PM 29.2403 -82.3356 123° Southeast 95 109 2,100  Climbing Jacksonville Center
Thu 03:35:06 PM 29.2256 -82.3097 113° Southeast 99 114 2,000 -197 Descending Jacksonville Center
Thu 03:36:07 PM 29.2150 -82.2811 99° East 101 116 1,700 -281 Descending Jacksonville Center
Thu 03:37:14 PM 29.2106 -82.2478 119° Southeast 89 102 1,400 -469 Descending Jacksonville Center
Thu 03:38:15 PM 29.2000 -82.2264 270° West 91 105 700 -689 Descending Jacksonville Center
Thu 03:46:15 PM 29.1997 -82.5388 90° East  Level FlightAware Approximate
Thu 03:47:15 PM 29.1998 -82.4998 90° East  Level FlightAware Approximate
Thu 03:48:15 PM 29.1999 -82.4607 90° East  Level FlightAware Approximate
Thu 03:49:15 PM 29.1999 -82.4217 90° East  Level FlightAware Approximate
Thu 03:50:15 PM 29.1999 -82.3826 90° East  Level FlightAware Approximate
Thu 03:51:15 PM 29.2000 -82.3436 90° East  Level FlightAware Approximate
Thu 03:52:15 PM 29.2000 -82.3045 112° Southeast  Level FlightAware Approximate
Thu 03:53:15 PM 29.1874 -82.2686 112° Southeast  Level FlightAware Approximate
Thu 03:54:15 PM 29.1748 -82.2323 121° Southeast  Level Estimated
Thu 03:55:15 PM 29.1667 -82.2167 309° West  Level FlightAware Approximate
Thu 03:56:15 PM 29.1880 -82.2471 309° West  Level Estimated

Login

Don't have an account? Register now (free) for customized features, flight alerts, and more!